Terminal Aerodrome Forecast
Issued by NWS Upton, NY

Home | Current Version | Previous Version | Text Only | Print | Product List | Glossary On
Versions: 1 2 3 4 5 6 7 8 9 10 11 12 13 14 15 16 17 18 19 20 21 22 23 24 25 26 27 28 29
000
FTUS41 KOKX 171431 AAB
TAFBDR
TAF AMD
KBDR 171431Z 1715/1812 36005KT P6SM BKN050
     FM172100 VRB04KT P6SM FEW050 OVC150
     FM180700 VRB02KT P6SM SCT020 OVC080
     FM180900 VRB02KT P6SM BKN020=

USA.gov is the U.S. government's official web portal to all federal, state and local government web resources and services.